Time;durP1;ratioP1;P1;durP2;ratioP2;P2;SDS_P1;SDS_P2;PMS_P1;PMS_P2;Temp;Humidity;BMP_temperature;BMP_pressure;BME280_temperature;BME280_humidity;BME280_pressure;Samples;Min_cycle;Max_cycle;Signal;HPM_P1;HPM_P2
2022/06/22 00:01:14;;;;;;;5.53;3.60;;;;;;;;;;5009690;28;20296;-74
2022/06/22 00:03:43;;;;;;;5.60;3.57;;;;;;;;;;5010561;28;20674;-74
2022/06/22 00:06:16;;;;;;;6.37;3.47;;;;;;;;;;5011490;28;20223;-74
2022/06/22 00:08:46;;;;;;;8.33;3.67;;;;;;;;;;5011385;28;20216;-75
2022/06/22 00:11:16;;;;;;;6.87;3.80;;;;;;;;;;5009636;28;20204;-74
2022/06/22 00:13:47;;;;;;;4.93;3.63;;;;;;;;;;5007951;28;20662;-75
2022/06/22 00:16:18;;;;;;;7.03;3.53;;;;;;;;;;5009213;28;20239;-75
2022/06/22 00:18:46;;;;;;;8.17;4.27;;;;;;;;;;5011987;28;20230;-74
2022/06/22 00:21:18;;;;;;;5.67;3.93;;;;;;;;;;5008216;28;20679;-75
2022/06/22 00:23:47;;;;;;;9.13;4.40;;;;;;;;;;5005765;28;20211;-75
2022/06/22 00:26:21;;;;;;;7.10;4.17;;;;;;;;;;5008155;28;20272;-75
2022/06/22 00:29:01;;;;;;;8.00;4.03;;;;;;;;;;5005389;28;20209;-75
2022/06/22 00:31:33;;;;;;;9.20;4.43;;;;;;;;;;5007522;28;20223;-75
2022/06/22 00:34:05;;;;;;;12.53;4.63;;;;;;;;;;5006772;28;20214;-75
2022/06/22 00:36:36;;;;;;;7.37;4.20;;;;;;;;;;5007037;28;20228;-74
2022/06/22 00:39:15;;;;;;;9.57;5.40;;;;;;;;;;5008635;28;20201;-75
2022/06/22 00:41:45;;;;;;;9.90;4.43;;;;;;;;;;5010654;28;20668;-75
2022/06/22 00:44:13;;;;;;;5.90;4.10;;;;;;;;;;5008342;28;20209;-75
2022/06/22 00:46:42;;;;;;;5.70;4.27;;;;;;;;;;5010329;28;20228;-75
2022/06/22 00:49:11;;;;;;;5.57;4.07;;;;;;;;;;5009401;28;20204;-75
2022/06/22 00:51:40;;;;;;;7.90;4.53;;;;;;;;;;5009727;28;20205;-75
2022/06/22 00:54:10;;;;;;;11.33;4.57;;;;;;;;;;5012182;28;20204;-75
2022/06/22 00:56:43;;;;;;;8.40;4.60;;;;;;;;;;5010526;28;20229;-75
2022/06/22 00:59:18;;;;;;;8.17;4.50;;;;;;;;;;5012494;28;20211;-76
2022/06/22 01:01:47;;;;;;;8.27;4.20;;;;;;;;;;5008527;28;20406;-75
2022/06/22 01:04:19;;;;;;;5.70;4.33;;;;;;;;;;5011427;28;20211;-75
2022/06/22 01:06:48;;;;;;;7.37;4.63;;;;;;;;;;5010231;28;20228;-75
2022/06/22 01:09:20;;;;;;;6.93;4.37;;;;;;;;;;5010331;28;20208;-76
2022/06/22 01:14:40;;;;;;;8.10;4.20;;;;;;;;;;5009228;28;20208;-76
2022/06/22 01:17:13;;;;;;;8.63;4.33;;;;;;;;;;5006962;28;20228;-75
2022/06/22 01:19:46;;;;;;;6.73;4.60;;;;;;;;;;5011904;28;20204;-76
2022/06/22 01:22:20;;;;;;;5.90;4.27;;;;;;;;;;5006463;28;20259;-75
2022/06/22 01:24:53;;;;;;;6.50;4.70;;;;;;;;;;5003760;28;20212;-74
2022/06/22 01:27:30;;;;;;;5.40;4.07;;;;;;;;;;5006575;28;20225;-75
2022/06/22 01:29:58;;;;;;;9.77;4.43;;;;;;;;;;5006786;28;20203;-74
2022/06/22 01:32:28;;;;;;;13.93;4.70;;;;;;;;;;5009326;28;20216;-75
2022/06/22 01:34:56;;;;;;;7.23;4.57;;;;;;;;;;5001980;28;20348;-75
2022/06/22 01:37:25;;;;;;;7.13;3.97;;;;;;;;;;5009180;28;20234;-74
2022/06/22 01:39:52;;;;;;;6.63;4.40;;;;;;;;;;5007963;28;20208;-74
2022/06/22 01:42:21;;;;;;;7.10;4.47;;;;;;;;;;5010581;28;20203;-75
2022/06/22 01:44:53;;;;;;;5.10;4.10;;;;;;;;;;5004087;28;20671;-75
2022/06/22 01:47:24;;;;;;;7.70;4.50;;;;;;;;;;5006002;28;20313;-74
2022/06/22 01:49:54;;;;;;;11.17;4.63;;;;;;;;;;5009127;28;20208;-74
2022/06/22 01:52:27;;;;;;;6.50;4.50;;;;;;;;;;5007858;28;20272;-74
2022/06/22 01:54:57;;;;;;;6.10;4.20;;;;;;;;;;5008495;28;20211;-74
2022/06/22 01:57:26;;;;;;;8.20;4.30;;;;;;;;;;5003040;28;20225;-75
2022/06/22 01:59:58;;;;;;;6.77;4.80;;;;;;;;;;5005423;28;20204;-74
2022/06/22 02:02:27;;;;;;;10.93;4.90;;;;;;;;;;5007372;28;20204;-75
2022/06/22 02:04:56;;;;;;;7.17;4.10;;;;;;;;;;5008697;28;20207;-74
2022/06/22 02:10:20;;;;;;;11.03;4.40;;;;;;;;;;5009081;28;20647;-73
2022/06/22 02:13:03;;;;;;;6.37;4.20;;;;;;;;;;5004652;28;20227;-74
2022/06/22 02:15:43;;;;;;;9.23;4.23;;;;;;;;;;5008761;28;20415;-74
2022/06/22 02:18:11;;;;;;;6.70;4.50;;;;;;;;;;5008931;28;20228;-74
2022/06/22 02:20:40;;;;;;;6.60;4.27;;;;;;;;;;5006409;28;20598;-75
2022/06/22 02:23:10;;;;;;;8.03;4.80;;;;;;;;;;5007331;28;20211;-74
2022/06/22 02:25:39;;;;;;;8.47;4.77;;;;;;;;;;5007538;28;20212;-75
2022/06/22 02:28:07;;;;;;;6.80;4.13;;;;;;;;;;5012352;28;20599;-75
2022/06/22 02:30:36;;;;;;;5.77;4.10;;;;;;;;;;5013119;28;20212;-73
2022/06/22 02:33:03;;;;;;;9.07;4.43;;;;;;;;;;5009140;28;20216;-74
2022/06/22 02:35:30;;;;;;;5.80;4.00;;;;;;;;;;5005887;28;20208;-73
2022/06/22 02:38:05;;;;;;;7.57;4.63;;;;;;;;;;5012017;28;20235;-74
2022/06/22 02:44:29;;;;;;;7.10;4.37;;;;;;;;;;5008285;28;20291;-74
2022/06/22 02:46:21;;;;;;;9.97;4.03;;;;;;;;;;4971094;28;20260;-74
2022/06/22 02:48:54;;;;;;;9.90;4.93;;;;;;;;;;4998973;28;20205;-74
2022/06/22 02:51:24;;;;;;;10.10;4.07;;;;;;;;;;5006579;28;20206;-74
2022/06/22 02:53:52;;;;;;;11.27;3.77;;;;;;;;;;5006567;28;20205;-74
2022/06/22 02:56:22;;;;;;;5.53;3.90;;;;;;;;;;5005583;28;20224;-74
2022/06/22 02:58:49;;;;;;;8.03;3.93;;;;;;;;;;5006573;28;20210;-73
2022/06/22 03:01:17;;;;;;;7.30;4.43;;;;;;;;;;5006484;28;20292;-74
2022/06/22 03:03:48;;;;;;;6.23;4.03;;;;;;;;;;5009833;28;20562;-73
2022/06/22 03:06:16;;;;;;;6.10;4.10;;;;;;;;;;5010275;28;20294;-74
2022/06/22 03:08:44;;;;;;;9.93;3.67;;;;;;;;;;5011366;28;20499;-74
2022/06/22 03:11:12;;;;;;;7.33;4.07;;;;;;;;;;5011769;28;20584;-74
2022/06/22 03:13:41;;;;;;;9.80;4.10;;;;;;;;;;5011004;28;20665;-74
2022/06/22 03:16:09;;;;;;;7.53;3.90;;;;;;;;;;5008163;28;20208;-73
2022/06/22 03:18:40;;;;;;;12.00;4.40;;;;;;;;;;5011214;28;20262;-74
2022/06/22 03:21:12;;;;;;;6.43;3.83;;;;;;;;;;5012687;28;20216;-74
2022/06/22 03:23:42;;;;;;;5.00;4.10;;;;;;;;;;5010486;28;20209;-74
2022/06/22 03:26:14;;;;;;;5.87;4.07;;;;;;;;;;5006905;28;20696;-74
2022/06/22 03:28:42;;;;;;;4.30;3.50;;;;;;;;;;5011506;28;20201;-75
2022/06/22 03:31:12;;;;;;;7.77;3.93;;;;;;;;;;5010324;28;20200;-75
2022/06/22 03:33:43;;;;;;;7.60;4.47;;;;;;;;;;5008261;28;20204;-75
2022/06/22 03:36:16;;;;;;;9.93;3.80;;;;;;;;;;5010428;28;20201;-75
2022/06/22 03:38:44;;;;;;;9.40;4.17;;;;;;;;;;5008644;28;20224;-75
2022/06/22 03:41:14;;;;;;;10.20;4.40;;;;;;;;;;5009071;28;20201;-75
2022/06/22 03:43:43;;;;;;;9.63;4.13;;;;;;;;;;5005827;28;20211;-75
2022/06/22 03:46:12;;;;;;;7.33;4.30;;;;;;;;;;5011040;28;20205;-75
2022/06/22 03:48:42;;;;;;;9.23;4.20;;;;;;;;;;5009580;28;20205;-75
2022/06/22 03:51:12;;;;;;;6.60;3.80;;;;;;;;;;5008105;28;20208;-75
2022/06/22 03:53:43;;;;;;;7.90;3.40;;;;;;;;;;5008597;28;20673;-75
2022/06/22 03:56:11;;;;;;;7.10;3.10;;;;;;;;;;5008509;28;20201;-75
2022/06/22 03:58:40;;;;;;;4.60;3.00;;;;;;;;;;5010014;28;20565;-76
2022/06/22 04:01:07;;;;;;;3.83;3.10;;;;;;;;;;5005001;28;20569;-75
2022/06/22 04:03:35;;;;;;;5.13;3.23;;;;;;;;;;5007022;28;20218;-74
2022/06/22 04:06:03;;;;;;;6.00;3.20;;;;;;;;;;5013847;28;20207;-75
2022/06/22 04:08:50;;;;;;;3.47;2.80;;;;;;;;;;5016646;28;20193;-74
2022/06/22 04:11:24;;;;;;;4.53;2.90;;;;;;;;;;5008101;28;20290;-76
2022/06/22 04:13:53;;;;;;;5.00;2.93;;;;;;;;;;5005805;28;20203;-74
2022/06/22 04:16:22;;;;;;;3.97;2.50;;;;;;;;;;5007713;28;20234;-75
2022/06/22 04:18:52;;;;;;;7.17;2.97;;;;;;;;;;5010974;28;20232;-75
2022/06/22 04:21:22;;;;;;;7.50;2.83;;;;;;;;;;5008654;28;20208;-75
2022/06/22 04:23:52;;;;;;;5.50;3.10;;;;;;;;;;5003748;28;20204;-76
2022/06/22 04:26:23;;;;;;;5.07;2.57;;;;;;;;;;5007494;28;20590;-75
2022/06/22 04:28:53;;;;;;;5.60;2.70;;;;;;;;;;5010344;28;20210;-75
2022/06/22 04:31:23;;;;;;;6.07;2.70;;;;;;;;;;5007970;28;20204;-75
2022/06/22 04:33:53;;;;;;;3.50;2.60;;;;;;;;;;5009003;28;20208;-75
2022/06/22 04:36:23;;;;;;;5.50;2.50;;;;;;;;;;5005889;28;20236;-75
2022/06/22 04:38:53;;;;;;;8.43;2.80;;;;;;;;;;5004671;28;20306;-75
2022/06/22 04:41:24;;;;;;;5.60;2.60;;;;;;;;;;5005495;28;20205;-75
2022/06/22 04:43:51;;;;;;;5.73;2.40;;;;;;;;;;5006519;28;20639;-74
2022/06/22 04:46:24;;;;;;;6.20;2.60;;;;;;;;;;5006731;28;20224;-74
2022/06/22 04:48:51;;;;;;;5.60;2.67;;;;;;;;;;5007992;28;20197;-75
2022/06/22 04:51:26;;;;;;;6.53;2.43;;;;;;;;;;5005487;28;20219;-75
2022/06/22 04:53:56;;;;;;;7.33;2.63;;;;;;;;;;5008497;28;20212;-75
2022/06/22 04:56:27;;;;;;;7.37;2.50;;;;;;;;;;5006342;28;20271;-75
2022/06/22 04:58:55;;;;;;;10.47;2.73;;;;;;;;;;5006400;28;20568;-75
2022/06/22 05:01:24;;;;;;;3.17;2.10;;;;;;;;;;5006783;28;20295;-75
2022/06/22 05:03:52;;;;;;;2.83;2.20;;;;;;;;;;5007290;28;20219;-75
2022/06/22 05:06:21;;;;;;;5.57;2.60;;;;;;;;;;5005668;28;20226;-73
2022/06/22 05:08:52;;;;;;;6.73;2.33;;;;;;;;;;5005177;28;20208;-74
2022/06/22 05:11:21;;;;;;;8.00;2.73;;;;;;;;;;5008053;28;20673;-75
2022/06/22 05:13:51;;;;;;;6.63;2.50;;;;;;;;;;5008460;28;20200;-74
2022/06/22 05:16:20;;;;;;;4.70;2.47;;;;;;;;;;5004916;28;20232;-75
2022/06/22 05:18:49;;;;;;;5.60;2.53;;;;;;;;;;5009164;28;20232;-76
2022/06/22 05:21:19;;;;;;;5.00;2.37;;;;;;;;;;5008578;28;20319;-74
2022/06/22 05:23:49;;;;;;;5.47;2.80;;;;;;;;;;5006523;28;20217;-76
2022/06/22 05:26:18;;;;;;;6.57;2.70;;;;;;;;;;5005335;28;20223;-75
2022/06/22 05:28:47;;;;;;;3.70;2.47;;;;;;;;;;5003494;28;20296;-75
2022/06/22 05:31:19;;;;;;;6.03;2.47;;;;;;;;;;5005086;28;20211;-74
2022/06/22 05:33:48;;;;;;;4.03;2.20;;;;;;;;;;5006309;28;20549;-74
2022/06/22 05:36:17;;;;;;;6.43;2.50;;;;;;;;;;5007325;28;20231;-75
2022/06/22 05:38:46;;;;;;;6.47;2.30;;;;;;;;;;5004527;28;20247;-76
2022/06/22 05:41:14;;;;;;;6.13;2.33;;;;;;;;;;5004659;28;20204;-75
2022/06/22 05:43:42;;;;;;;7.07;2.30;;;;;;;;;;5005883;28;20299;-75
2022/06/22 05:46:10;;;;;;;3.17;2.10;;;;;;;;;;5004587;28;20232;-72
2022/06/22 05:48:42;;;;;;;5.60;2.20;;;;;;;;;;5006150;28;20205;-74
2022/06/22 05:51:18;;;;;;;6.80;2.47;;;;;;;;;;5004604;28;20213;-74
2022/06/22 05:53:47;;;;;;;3.87;2.20;;;;;;;;;;5008478;28;20331;-74
2022/06/22 05:56:17;;;;;;;5.87;2.17;;;;;;;;;;5007174;28;20275;-73
2022/06/22 05:58:51;;;;;;;4.63;2.17;;;;;;;;;;5015185;28;20232;-72
2022/06/22 06:01:21;;;;;;;4.03;2.30;;;;;;;;;;5013597;28;20577;-73
2022/06/22 06:03:58;;;;;;;10.83;2.20;;;;;;;;;;5007459;28;20196;-71
2022/06/22 06:06:27;;;;;;;8.40;2.57;;;;;;;;;;5008566;28;20228;-73
2022/06/22 06:08:56;;;;;;;8.93;2.10;;;;;;;;;;5010967;28;20201;-73
2022/06/22 06:11:25;;;;;;;5.40;2.73;;;;;;;;;;5004249;28;20231;-73
2022/06/22 06:13:58;;;;;;;8.70;2.57;;;;;;;;;;5002224;28;20203;-73
2022/06/22 06:16:27;;;;;;;3.77;1.93;;;;;;;;;;5006386;28;20302;-73
2022/06/22 06:18:59;;;;;;;3.67;2.13;;;;;;;;;;5001138;28;20221;-75
2022/06/22 06:21:30;;;;;;;11.03;2.97;;;;;;;;;;5001580;28;20567;-74
2022/06/22 06:24:00;;;;;;;7.23;2.83;;;;;;;;;;5005494;28;20235;-73
2022/06/22 06:29:22;;;;;;;6.70;2.60;;;;;;;;;;5005921;28;20335;-72
2022/06/22 06:31:59;;;;;;;9.63;2.80;;;;;;;;;;5012620;28;20208;-73
2022/06/22 06:34:30;;;;;;;11.20;2.87;;;;;;;;;;5020775;28;20207;-75
2022/06/22 06:37:00;;;;;;;8.23;2.60;;;;;;;;;;5011534;28;20225;-72
2022/06/22 06:39:29;;;;;;;6.83;2.60;;;;;;;;;;5010989;28;20253;-75
2022/06/22 06:42:04;;;;;;;4.93;2.50;;;;;;;;;;5011638;28;20205;-72
2022/06/22 06:44:33;;;;;;;5.90;2.30;;;;;;;;;;5017966;28;20642;-73
2022/06/22 06:47:05;;;;;;;9.47;2.80;;;;;;;;;;5004207;28;20227;-73
2022/06/22 06:49:36;;;;;;;12.10;2.70;;;;;;;;;;5008593;28;20210;-73
2022/06/22 06:52:05;;;;;;;5.10;2.33;;;;;;;;;;5009969;28;20205;-73
2022/06/22 06:54:34;;;;;;;5.37;2.20;;;;;;;;;;5005280;28;20568;-74
2022/06/22 06:57:04;;;;;;;4.57;2.07;;;;;;;;;;5005536;28;20604;-75
2022/06/22 06:59:32;;;;;;;3.33;2.10;;;;;;;;;;5006731;28;20593;-73
2022/06/22 07:02:10;;;;;;;8.03;2.37;;;;;;;;;;5008068;28;20266;-73
2022/06/22 07:04:39;;;;;;;4.27;2.03;;;;;;;;;;5003367;28;20417;-75
2022/06/22 07:07:09;;;;;;;10.43;2.03;;;;;;;;;;5007565;28;20219;-75
2022/06/22 07:09:39;;;;;;;5.77;1.97;;;;;;;;;;5002678;28;20612;-72
2022/06/22 07:12:39;;;;;;;3.10;2.03;;;;;;;;;;5000772;28;20210;-73
2022/06/22 07:15:08;;;;;;;6.20;1.97;;;;;;;;;;4992924;28;20328;-73
2022/06/22 07:17:35;;;;;;;5.07;1.90;;;;;;;;;;5001211;28;20224;-74
2022/06/22 07:20:07;;;;;;;3.40;1.50;;;;;;;;;;5006037;28;21606;-74
2022/06/22 07:22:36;;;;;;;5.17;1.40;;;;;;;;;;4999179;28;20206;-73
2022/06/22 07:25:12;;;;;;;3.83;1.10;;;;;;;;;;5002775;28;20211;-74
2022/06/22 07:27:42;;;;;;;2.73;1.10;;;;;;;;;;5004340;28;20236;-74
2022/06/22 07:30:13;;;;;;;2.30;1.20;;;;;;;;;;5006530;28;20591;-74
2022/06/22 07:32:42;;;;;;;4.00;1.40;;;;;;;;;;5003374;28;20208;-74
2022/06/22 07:35:13;;;;;;;2.33;1.17;;;;;;;;;;5006941;28;20240;-74
2022/06/22 07:37:52;;;;;;;3.97;1.35;;;;;;;;;;4996334;28;20234;-74
2022/06/22 07:40:23;;;;;;;2.22;1.20;;;;;;;;;;5001170;28;20667;-74
2022/06/22 07:42:53;;;;;;;2.15;1.30;;;;;;;;;;4999523;28;20207;-75
2022/06/22 07:45:21;;;;;;;3.20;1.50;;;;;;;;;;5005138;28;20202;-74
2022/06/22 07:47:54;;;;;;;3.13;1.20;;;;;;;;;;5002911;28;20936;-74
2022/06/22 07:50:25;;;;;;;3.83;1.10;;;;;;;;;;5001105;28;20207;-74
2022/06/22 07:52:55;;;;;;;2.63;1.10;;;;;;;;;;5001617;28;20209;-74
2022/06/22 07:55:31;;;;;;;1.98;1.20;;;;;;;;;;5008426;28;20208;-73
2022/06/22 07:58:12;;;;;;;2.20;1.10;;;;;;;;;;5006533;28;20263;-73
2022/06/22 08:00:41;;;;;;;3.92;1.30;;;;;;;;;;4999298;28;20662;-75
2022/06/22 08:03:16;;;;;;;4.13;1.30;;;;;;;;;;5000342;28;20250;-73
2022/06/22 08:05:46;;;;;;;5.18;1.20;;;;;;;;;;5004974;28;20211;-74
2022/06/22 08:08:19;;;;;;;3.92;1.17;;;;;;;;;;5005928;28;20781;-72
2022/06/22 08:10:49;;;;;;;7.07;1.27;;;;;;;;;;5015623;28;20203;-73
2022/06/22 08:13:18;;;;;;;3.35;1.00;;;;;;;;;;5005985;28;20210;-78
2022/06/22 08:15:48;;;;;;;2.72;1.20;;;;;;;;;;5003557;28;20736;-73
2022/06/22 08:18:15;;;;;;;2.47;1.00;;;;;;;;;;5004483;28;20228;-74
2022/06/22 08:20:44;;;;;;;2.28;1.02;;;;;;;;;;5005900;28;20232;-73
2022/06/22 08:23:15;;;;;;;6.65;1.30;;;;;;;;;;5005242;28;20210;-75
2022/06/22 08:25:44;;;;;;;3.35;1.23;;;;;;;;;;5005824;28;20210;-74
2022/06/22 08:28:17;;;;;;;3.83;1.25;;;;;;;;;;5002557;28;20217;-74
2022/06/22 08:30:46;;;;;;;4.85;1.27;;;;;;;;;;5006908;28;20219;-74
2022/06/22 08:33:15;;;;;;;2.72;1.00;;;;;;;;;;5007659;28;20201;-74
2022/06/22 08:35:45;;;;;;;3.72;1.00;;;;;;;;;;5007317;28;20557;-74
2022/06/22 08:38:21;;;;;;;1.90;0.85;;;;;;;;;;5009281;28;20343;-73
2022/06/22 08:40:53;;;;;;;3.85;1.00;;;;;;;;;;5008888;28;20206;-74
2022/06/22 08:43:23;;;;;;;2.65;1.08;;;;;;;;;;5006506;28;20578;-74
2022/06/22 08:46:05;;;;;;;3.03;1.02;;;;;;;;;;5009341;28;20209;-74
2022/06/22 08:48:40;;;;;;;3.20;1.00;;;;;;;;;;5010822;28;20211;-74
2022/06/22 08:51:25;;;;;;;2.23;0.90;;;;;;;;;;5003565;28;20782;-74
2022/06/22 08:54:01;;;;;;;2.60;1.00;;;;;;;;;;5007040;28;20214;-74
2022/06/22 08:56:32;;;;;;;4.00;1.20;;;;;;;;;;4997918;28;20313;-74
2022/06/22 08:59:18;;;;;;;2.27;1.30;;;;;;;;;;5006855;28;20243;-74
2022/06/22 09:01:49;;;;;;;2.27;1.10;;;;;;;;;;5007365;28;20210;-74
2022/06/22 09:04:33;;;;;;;4.80;1.50;;;;;;;;;;5004775;28;20201;-74
2022/06/22 09:07:15;;;;;;;3.40;1.13;;;;;;;;;;5002403;28;20612;-74
2022/06/22 09:10:04;;;;;;;2.27;1.30;;;;;;;;;;5002033;28;20207;-74
2022/06/22 09:12:37;;;;;;;3.23;1.13;;;;;;;;;;5007781;28;20262;-73
2022/06/22 09:15:26;;;;;;;5.03;1.27;;;;;;;;;;5011767;28;20204;-73
2022/06/22 09:18:16;;;;;;;4.50;1.00;;;;;;;;;;5007501;28;20587;-75
2022/06/22 09:20:52;;;;;;;2.33;1.13;;;;;;;;;;5006468;28;20642;-76
2022/06/22 09:23:25;;;;;;;1.67;1.10;;;;;;;;;;5003009;28;20689;-75
2022/06/22 09:26:00;;;;;;;4.07;1.00;;;;;;;;;;5005418;28;20315;-75
2022/06/22 09:28:28;;;;;;;2.80;1.10;;;;;;;;;;5006735;28;20293;-75
2022/06/22 09:31:14;;;;;;;3.07;1.00;;;;;;;;;;5009472;28;20214;-76
2022/06/22 09:33:49;;;;;;;2.47;1.00;;;;;;;;;;5000204;28;20203;-75
2022/06/22 09:36:25;;;;;;;2.03;1.03;;;;;;;;;;5007310;28;20230;-75
2022/06/22 09:39:10;;;;;;;2.63;1.10;;;;;;;;;;5002169;28;20227;-74
2022/06/22 09:41:47;;;;;;;3.00;1.00;;;;;;;;;;5003497;28;20222;-73
2022/06/22 09:44:27;;;;;;;3.97;1.10;;;;;;;;;;5003754;28;20225;-75
2022/06/22 09:47:21;;;;;;;5.23;1.10;;;;;;;;;;5003448;28;20227;-75
2022/06/22 09:50:03;;;;;;;3.30;1.00;;;;;;;;;;4968963;28;20649;-76
2022/06/22 09:53:01;;;;;;;2.03;0.83;;;;;;;;;;5007539;28;20215;-75
2022/06/22 09:58:30;;;;;;;2.93;1.07;;;;;;;;;;5004567;28;20227;-75
2022/06/22 10:01:04;;;;;;;3.10;1.00;;;;;;;;;;5005158;28;20644;-75
2022/06/22 10:03:43;;;;;;;4.00;1.07;;;;;;;;;;5007372;28;20200;-75
2022/06/22 10:06:19;;;;;;;3.50;1.00;;;;;;;;;;5001967;28;20232;-75
2022/06/22 10:08:56;;;;;;;6.63;1.20;;;;;;;;;;5005682;28;20236;-73
2022/06/22 10:11:27;;;;;;;1.80;1.10;;;;;;;;;;5007426;28;20231;-76
2022/06/22 10:14:11;;;;;;;3.10;1.00;;;;;;;;;;5003998;28;20209;-75
2022/06/22 10:16:45;;;;;;;2.60;1.10;;;;;;;;;;5001643;28;20256;-73
2022/06/22 10:19:21;;;;;;;4.23;1.03;;;;;;;;;;5006676;28;20282;-74
2022/06/22 10:21:53;;;;;;;3.80;1.30;;;;;;;;;;5003103;28;20682;-72
2022/06/22 10:24:28;;;;;;;2.00;0.90;;;;;;;;;;5003976;28;20231;-75
2022/06/22 10:27:08;;;;;;;0.93;0.83;;;;;;;;;;5003380;28;20255;-76
2022/06/22 10:29:48;;;;;;;3.67;1.20;;;;;;;;;;5006935;28;20711;-75
2022/06/22 10:32:40;;;;;;;2.70;1.10;;;;;;;;;;5008978;28;20231;-75
2022/06/22 10:35:14;;;;;;;1.37;0.83;;;;;;;;;;5007169;28;20232;-75
2022/06/22 10:37:58;;;;;;;1.90;1.20;;;;;;;;;;5003306;28;20256;-74
2022/06/22 10:46:39;;;;;;;3.33;1.00;;;;;;;;;;4959899;28;20221;-75
2022/06/22 10:49:34;;;;;;;1.73;1.13;;;;;;;;;;4990421;28;20708;-75
2022/06/22 10:52:25;;;;;;;2.87;1.10;;;;;;;;;;5004246;28;20263;-76
2022/06/22 10:55:10;;;;;;;4.97;1.10;;;;;;;;;;4983165;28;20208;-72
2022/06/22 10:57:48;;;;;;;2.13;0.93;;;;;;;;;;5006785;28;20232;-75
2022/06/22 11:00:20;;;;;;;2.37;1.20;;;;;;;;;;5003128;28;20311;-73
2022/06/22 11:03:02;;;;;;;1.67;1.10;;;;;;;;;;4998832;28;20211;-72
2022/06/22 11:05:37;;;;;;;2.90;1.10;;;;;;;;;;5001603;28;20196;-73
2022/06/22 11:08:16;;;;;;;3.77;1.10;;;;;;;;;;4995770;28;20220;-74
2022/06/22 11:11:01;;;;;;;4.13;1.37;;;;;;;;;;5003928;28;20269;-75
2022/06/22 11:13:37;;;;;;;4.50;1.10;;;;;;;;;;5001761;28;20215;-75
2022/06/22 11:16:09;;;;;;;2.40;1.10;;;;;;;;;;4996555;28;20291;-75
2022/06/22 11:19:19;;;;;;;2.50;1.10;;;;;;;;;;4998056;28;20290;-72
2022/06/22 11:21:56;;;;;;;1.97;1.20;;;;;;;;;;4969653;28;20303;-75
2022/06/22 11:24:39;;;;;;;1.70;1.10;;;;;;;;;;4996960;28;20686;-75
2022/06/22 11:33:13;;;;;;;2.20;0.97;;;;;;;;;;4966615;28;20624;-75
2022/06/22 11:35:51;;;;;;;2.00;1.00;;;;;;;;;;4966871;28;20229;-74
2022/06/22 11:38:36;;;;;;;2.73;1.00;;;;;;;;;;4987780;28;20250;-73
2022/06/22 11:41:09;;;;;;;1.17;1.00;;;;;;;;;;5012076;28;20307;-73
2022/06/22 11:43:48;;;;;;;1.33;0.90;;;;;;;;;;5010119;28;20857;-73
2022/06/22 11:46:18;;;;;;;2.40;1.10;;;;;;;;;;5011228;28;20224;-72
2022/06/22 11:49:04;;;;;;;3.73;1.00;;;;;;;;;;5017169;28;20227;-76
2022/06/22 11:51:39;;;;;;;1.90;0.97;;;;;;;;;;5015250;28;20208;-72
2022/06/22 11:54:21;;;;;;;2.03;0.90;;;;;;;;;;5013600;28;20204;-73
2022/06/22 11:56:57;;;;;;;3.43;1.00;;;;;;;;;;5018805;28;20765;-73
2022/06/22 11:59:38;;;;;;;3.17;1.10;;;;;;;;;;5019359;28;20302;-72
2022/06/22 12:02:21;;;;;;;1.20;1.00;;;;;;;;;;5021427;28;20666;-73
2022/06/22 12:04:58;;;;;;;2.97;0.90;;;;;;;;;;5016813;28;20200;-77
2022/06/22 12:07:39;;;;;;;1.30;1.00;;;;;;;;;;5016709;28;20643;-73
2022/06/22 12:10:14;;;;;;;2.27;1.00;;;;;;;;;;5021663;28;20204;-72
2022/06/22 12:12:53;;;;;;;2.03;1.20;;;;;;;;;;5016176;28;20282;-73
2022/06/22 12:15:30;;;;;;;1.10;0.90;;;;;;;;;;5015133;28;20207;-72
2022/06/22 12:18:02;;;;;;;1.23;1.13;;;;;;;;;;5017216;28;20219;-74
2022/06/22 12:20:35;;;;;;;2.47;1.10;;;;;;;;;;5014082;28;20318;-72
2022/06/22 12:23:09;;;;;;;4.93;1.20;;;;;;;;;;5012874;28;20372;-75
2022/06/22 12:25:42;;;;;;;3.70;1.20;;;;;;;;;;5018187;28;20300;-73
2022/06/22 12:28:20;;;;;;;3.53;0.90;;;;;;;;;;5017218;28;20284;-73
2022/06/22 12:30:53;;;;;;;3.47;0.93;;;;;;;;;;5020324;28;20899;-73
2022/06/22 12:33:23;;;;;;;2.20;1.13;;;;;;;;;;5014528;28;20628;-73
2022/06/22 12:35:52;;;;;;;3.17;0.90;;;;;;;;;;5012126;28;20204;-77
2022/06/22 12:38:23;;;;;;;4.00;1.17;;;;;;;;;;5009270;28;20634;-73
2022/06/22 12:41:01;;;;;;;1.57;1.00;;;;;;;;;;5019196;28;20248;-73
2022/06/22 12:43:49;;;;;;;1.70;0.90;;;;;;;;;;5012472;28;21194;-73
2022/06/22 12:46:22;;;;;;;1.00;0.83;;;;;;;;;;5021012;28;20251;-73
2022/06/22 12:49:07;;;;;;;2.00;0.90;;;;;;;;;;5021036;28;20197;-74
2022/06/22 12:51:37;;;;;;;1.47;0.90;;;;;;;;;;5006419;28;20679;-73
2022/06/22 12:54:06;;;;;;;1.47;0.83;;;;;;;;;;5013184;28;20259;-73
2022/06/22 12:56:37;;;;;;;1.60;0.80;;;;;;;;;;5017960;28;20251;-73
2022/06/22 12:59:08;;;;;;;2.33;0.97;;;;;;;;;;5007167;28;20262;-74
2022/06/22 13:01:36;;;;;;;1.63;0.80;;;;;;;;;;5017549;28;20223;-74
2022/06/22 13:04:05;;;;;;;1.80;0.80;;;;;;;;;;5001647;28;21189;-75
2022/06/22 13:06:34;;;;;;;2.13;1.00;;;;;;;;;;5004535;28;20220;-74
2022/06/22 13:09:02;;;;;;;3.57;0.90;;;;;;;;;;5003385;28;20256;-74
2022/06/22 13:11:30;;;;;;;4.00;1.10;;;;;;;;;;5003291;28;20247;-75
2022/06/22 13:14:01;;;;;;;2.00;0.83;;;;;;;;;;5002073;28;20205;-75
2022/06/22 13:16:31;;;;;;;1.30;0.80;;;;;;;;;;5001340;28;20862;-74
2022/06/22 13:19:02;;;;;;;2.90;0.90;;;;;;;;;;5005412;28;20243;-75
2022/06/22 13:21:33;;;;;;;2.77;0.50;;;;;;;;;;5005432;28;20296;-74
2022/06/22 13:24:03;;;;;;;0.73;0.70;;;;;;;;;;5006298;28;20289;-74
2022/06/22 13:26:42;;;;;;;0.80;0.70;;;;;;;;;;5004168;28;20264;-74
2022/06/22 13:29:15;;;;;;;1.07;0.80;;;;;;;;;;4999312;28;20582;-73
2022/06/22 13:31:45;;;;;;;2.70;0.70;;;;;;;;;;4999440;28;20295;-74
2022/06/22 13:34:14;;;;;;;1.67;0.77;;;;;;;;;;5000337;28;20657;-74
2022/06/22 13:36:47;;;;;;;3.43;0.70;;;;;;;;;;5000256;28;20224;-74
2022/06/22 13:39:26;;;;;;;1.80;0.60;;;;;;;;;;4998752;28;21246;-74
2022/06/22 13:42:06;;;;;;;1.30;0.60;;;;;;;;;;5004511;28;20259;-77
2022/06/22 13:44:42;;;;;;;1.70;1.00;;;;;;;;;;5000689;28;20203;-75
2022/06/22 13:47:22;;;;;;;1.47;0.80;;;;;;;;;;5007868;28;20231;-74
2022/06/22 13:50:14;;;;;;;2.00;0.93;;;;;;;;;;5003566;28;20300;-76
2022/06/22 13:52:43;;;;;;;0.73;0.70;;;;;;;;;;5005830;28;20238;-75
2022/06/22 13:55:19;;;;;;;0.57;0.53;;;;;;;;;;5007520;28;20923;-76
2022/06/22 13:57:49;;;;;;;2.10;0.73;;;;;;;;;;5004255;28;20340;-76
2022/06/22 14:00:17;;;;;;;0.63;0.63;;;;;;;;;;5004296;28;20229;-75
2022/06/22 14:02:57;;;;;;;2.50;0.70;;;;;;;;;;5002938;28;20200;-76
2022/06/22 14:05:28;;;;;;;1.57;0.80;;;;;;;;;;5006094;28;20196;-75
2022/06/22 14:07:59;;;;;;;1.30;0.80;;;;;;;;;;5004492;28;20240;-76
2022/06/22 14:10:29;;;;;;;2.27;1.00;;;;;;;;;;5004075;28;20197;-75
2022/06/22 14:13:01;;;;;;;3.13;1.00;;;;;;;;;;5002731;28;20307;-75
2022/06/22 14:15:33;;;;;;;3.53;0.90;;;;;;;;;;5003035;28;20574;-75
2022/06/22 14:18:05;;;;;;;2.27;0.70;;;;;;;;;;5004946;28;20247;-76
2022/06/22 14:20:35;;;;;;;2.00;0.83;;;;;;;;;;5006322;28;20290;-75
2022/06/22 14:23:06;;;;;;;1.77;1.10;;;;;;;;;;5001332;28;20223;-75
2022/06/22 14:25:38;;;;;;;1.57;1.00;;;;;;;;;;5001856;28;20285;-74
2022/06/22 14:28:08;;;;;;;1.23;0.83;;;;;;;;;;5002765;28;20236;-76
2022/06/22 14:30:42;;;;;;;2.43;1.00;;;;;;;;;;5002436;28;20291;-76
2022/06/22 14:33:27;;;;;;;1.90;1.13;;;;;;;;;;5000397;28;20303;-74
2022/06/22 14:36:04;;;;;;;2.00;0.90;;;;;;;;;;4999758;28;20624;-73
2022/06/22 14:38:36;;;;;;;1.20;0.80;;;;;;;;;;5002463;28;20228;-74
2022/06/22 14:41:15;;;;;;;1.70;1.00;;;;;;;;;;5002310;28;20252;-73
2022/06/22 14:43:46;;;;;;;1.80;0.80;;;;;;;;;;5006364;28;20211;-73
2022/06/22 14:46:15;;;;;;;2.07;1.10;;;;;;;;;;5005978;28;20690;-76
2022/06/22 14:48:46;;;;;;;4.00;1.20;;;;;;;;;;5006763;28;20288;-76
2022/06/22 14:51:18;;;;;;;2.83;1.00;;;;;;;;;;5005821;28;20200;-76
2022/06/22 14:53:50;;;;;;;2.30;0.80;;;;;;;;;;5000409;28;21247;-76
2022/06/22 14:56:23;;;;;;;1.53;0.80;;;;;;;;;;4999512;28;20741;-76
2022/06/22 14:58:53;;;;;;;1.57;0.87;;;;;;;;;;5001746;28;20232;-73
2022/06/22 15:01:24;;;;;;;1.20;0.90;;;;;;;;;;5000853;28;20662;-76
2022/06/22 15:03:52;;;;;;;2.10;0.80;;;;;;;;;;5005155;28;20231;-76
2022/06/22 15:06:42;;;;;;;1.83;0.90;;;;;;;;;;5003081;28;20225;-76
2022/06/22 15:09:12;;;;;;;4.40;0.80;;;;;;;;;;5004342;28;20231;-76
2022/06/22 15:14:43;;;;;;;1.50;0.90;;;;;;;;;;4998555;28;20222;-75
2022/06/22 15:17:12;;;;;;;2.40;0.80;;;;;;;;;;5000011;28;20232;-73
2022/06/22 15:19:43;;;;;;;1.37;0.80;;;;;;;;;;5003275;28;20746;-74
2022/06/22 15:22:14;;;;;;;4.03;0.80;;;;;;;;;;4997100;28;20225;-74
2022/06/22 15:24:45;;;;;;;2.10;0.97;;;;;;;;;;4997437;28;20204;-73
2022/06/22 15:27:16;;;;;;;1.53;0.80;;;;;;;;;;4999350;28;20255;-74
2022/06/22 15:29:47;;;;;;;1.67;0.70;;;;;;;;;;4998865;28;20343;-74
2022/06/22 15:32:15;;;;;;;2.50;1.00;;;;;;;;;;5001975;28;20682;-74
2022/06/22 15:34:46;;;;;;;4.93;0.80;;;;;;;;;;4998468;28;20200;-74
2022/06/22 15:37:21;;;;;;;1.30;0.90;;;;;;;;;;5010315;28;20278;-74
2022/06/22 15:39:54;;;;;;;1.90;0.87;;;;;;;;;;5010678;28;20705;-74
2022/06/22 15:42:24;;;;;;;3.33;1.00;;;;;;;;;;4993456;28;20315;-73
2022/06/22 15:44:54;;;;;;;1.10;0.73;;;;;;;;;;5000382;28;20295;-74
2022/06/22 15:47:25;;;;;;;1.20;0.80;;;;;;;;;;5001610;28;20231;-74